Time;durP1;ratioP1;P1;durP2;ratioP2;P2;SDS_P1;SDS_P2;PMS_P1;PMS_P2;Temp;Humidity;BMP_temperature;BMP_pressure;BME280_temperature;BME280_humidity;BME280_pressure;Samples;Min_cycle;Max_cycle;Signal;HPM_P1;HPM_P2
2024/01/10 00:02:20;;;;;;;13.20;7.23;;;;;;;-4.58;83.50;150208.25;4977318;28;20430;-89
2024/01/10 00:04:47;;;;;;;10.47;6.87;;;;;;;-4.57;83.10;150209.53;4964173;28;20417;-89
2024/01/10 00:07:13;;;;;;;13.07;7.80;;;;;;;-4.57;83.89;150210.81;4976269;28;20407;-89
2024/01/10 00:09:40;;;;;;;9.67;6.90;;;;;;;-4.59;84.68;150205.72;4971159;28;20437;-89
2024/01/10 00:12:08;;;;;;;11.33;7.30;;;;;;;-4.57;83.61;150209.53;4963878;28;20507;-89
2024/01/10 00:14:35;;;;;;;10.90;7.07;;;;;;;-4.53;82.72;150219.78;4957578;28;20443;-89
2024/01/10 00:17:02;;;;;;;13.33;7.53;;;;;;;-4.55;82.62;150215.91;4971403;28;20439;-89
2024/01/10 00:19:29;;;;;;;12.20;6.40;;;;;;;-4.53;82.53;150219.78;4970995;28;20433;-89
2024/01/10 00:21:55;;;;;;;10.23;6.70;;;;;;;-4.55;82.81;150214.63;4955503;28;20842;-88
2024/01/10 00:24:22;;;;;;;12.53;6.80;;;;;;;-4.55;82.69;150214.63;4955342;28;20478;-89
2024/01/10 00:26:49;;;;;;;9.90;6.83;;;;;;;-4.54;83.31;150217.19;4955241;28;20769;-89
2024/01/10 00:29:17;;;;;;;13.43;8.13;;;;;;;-4.55;83.54;150214.63;4955199;28;20458;-89
2024/01/10 00:31:43;;;;;;;16.97;7.00;;;;;;;-4.57;83.86;150209.53;4970517;28;20505;-89
2024/01/10 00:34:10;;;;;;;8.17;6.40;;;;;;;-4.58;84.88;150208.25;4962596;28;20486;-89
2024/01/10 00:36:37;;;;;;;11.57;7.50;;;;;;;-4.63;85.07;150194.22;4955289;28;20458;-89
2024/01/10 00:39:04;;;;;;;11.30;8.27;;;;;;;-4.65;85.60;150189.09;4955088;28;20588;-89
2024/01/10 00:41:30;;;;;;;14.10;7.33;;;;;;;-4.67;85.55;150185.28;4954933;28;20450;-89
2024/01/10 00:43:57;;;;;;;10.57;6.63;;;;;;;-4.68;85.99;150181.41;4954777;28;20549;-89
2024/01/10 00:46:25;;;;;;;11.63;7.77;;;;;;;-4.68;86.47;150182.69;4955058;28;20453;-89
2024/01/10 00:48:52;;;;;;;10.57;7.37;;;;;;;-4.67;87.02;150185.28;4961704;28;20452;-88
2024/01/10 00:51:18;;;;;;;10.80;7.40;;;;;;;-4.66;87.97;150186.56;4941012;28;20462;-89
2024/01/10 00:53:45;;;;;;;12.37;6.90;;;;;;;-4.71;88.00;150173.78;4962608;28;20909;-89
2024/01/10 00:56:12;;;;;;;13.70;7.07;;;;;;;-4.73;87.31;150168.63;4950218;28;20430;-90
2024/01/10 00:58:39;;;;;;;12.00;6.97;;;;;;;-4.73;86.59;150168.63;4924060;29;20444;-89
2024/01/10 01:01:06;;;;;;;10.00;7.70;;;;;;;-4.72;86.70;150171.22;4949809;28;20452;-89
2024/01/10 01:03:34;;;;;;;9.90;7.17;;;;;;;-4.74;86.38;150166.13;4970577;28;20461;-89
2024/01/10 01:06:01;;;;;;;12.13;8.33;;;;;;;-4.70;86.75;150176.31;4952285;28;21008;-89
2024/01/10 01:08:27;;;;;;;11.63;7.63;;;;;;;-4.72;87.43;150171.22;4954593;28;20421;-89
2024/01/10 01:10:56;;;;;;;10.00;6.60;;;;;;;-4.72;87.46;150172.50;4954326;28;20408;-90
2024/01/10 01:13:23;;;;;;;11.70;7.20;;;;;;;-4.75;86.10;150163.53;4947689;29;20425;-89
2024/01/10 01:15:50;;;;;;;11.50;7.70;;;;;;;-4.76;86.59;150162.25;4969347;28;20443;-89
2024/01/10 01:18:16;;;;;;;10.23;6.70;;;;;;;-4.74;86.07;150166.13;4970088;28;20442;-90
2024/01/10 01:20:44;;;;;;;8.40;6.57;;;;;;;-4.74;85.75;150167.41;4959036;28;20409;-90
2024/01/10 01:23:11;;;;;;;10.07;7.53;;;;;;;-4.73;86.37;150168.63;4968797;28;20468;-89
2024/01/10 01:25:38;;;;;;;12.07;8.57;;;;;;;-4.74;86.78;150166.13;4943600;28;20484;-88
2024/01/10 01:28:05;;;;;;;12.47;8.07;;;;;;;-4.74;85.80;150167.41;4938141;28;20417;-90
2024/01/10 01:30:32;;;;;;;11.97;8.70;;;;;;;-4.71;85.57;150173.78;4937839;28;20439;-90
2024/01/10 01:32:58;;;;;;;12.57;7.63;;;;;;;-4.71;85.07;150173.78;4967782;28;20536;-88
2024/01/10 01:35:25;;;;;;;13.23;7.93;;;;;;;-4.67;85.19;150183.97;4938200;28;20425;-88
2024/01/10 01:37:53;;;;;;;11.77;7.63;;;;;;;-4.66;84.89;150187.78;4969910;28;20429;-88
2024/01/10 01:40:20;;;;;;;11.50;7.40;;;;;;;-4.64;84.29;150191.66;4966527;28;20454;-88
2024/01/10 01:42:47;;;;;;;9.83;7.97;;;;;;;-4.64;85.54;150191.66;4950523;28;20453;-88
2024/01/10 01:45:14;;;;;;;11.03;7.50;;;;;;;-4.63;85.30;150194.22;4952700;28;20406;-88
2024/01/10 01:47:41;;;;;;;10.10;7.67;;;;;;;-4.64;85.32;150191.66;4932725;28;20525;-89
2024/01/10 01:50:09;;;;;;;10.13;7.60;;;;;;;-4.66;85.83;150186.56;4949951;29;20414;-89
2024/01/10 01:52:35;;;;;;;14.00;9.43;;;;;;;-4.69;85.65;150180.16;4953191;28;20570;-88
2024/01/10 01:55:04;;;;;;;15.10;8.40;;;;;;;-4.70;85.93;150176.31;4953610;28;20473;-88
2024/01/10 01:57:31;;;;;;;12.53;7.83;;;;;;;-4.75;86.10;150163.53;4968771;28;20442;-88
2024/01/10 01:59:58;;;;;;;12.53;7.50;;;;;;;-4.74;86.66;150166.13;4966723;28;20506;-88
2024/01/10 02:02:25;;;;;;;12.63;8.43;;;;;;;-4.74;87.02;150166.13;4948700;28;20508;-87
2024/01/10 02:04:52;;;;;;;10.73;7.57;;;;;;;-4.78;87.09;150157.16;4955963;28;20464;-89
2024/01/10 02:07:18;;;;;;;12.20;7.30;;;;;;;-4.78;86.58;150157.16;4939175;28;21292;-90
2024/01/10 02:09:45;;;;;;;11.47;7.87;;;;;;;-4.77;84.88;150158.44;4969715;28;20429;-89
2024/01/10 02:12:13;;;;;;;11.33;7.87;;;;;;;-4.78;85.80;150155.88;4969756;28;20481;-88
2024/01/10 02:14:40;;;;;;;11.80;6.60;;;;;;;-4.79;86.37;150153.34;4940595;28;20992;-90
2024/01/10 02:17:06;;;;;;;16.47;10.00;;;;;;;-4.82;86.92;150145.66;4956485;28;20423;-89
2024/01/10 02:19:34;;;;;;;13.43;8.53;;;;;;;-4.84;85.88;150140.56;4939178;28;20783;-88
2024/01/10 02:22:02;;;;;;;12.50;8.23;;;;;;;-4.87;85.57;150132.91;4941103;28;20550;-89
2024/01/10 02:24:29;;;;;;;12.50;7.60;;;;;;;-4.89;85.60;150129.03;4962784;28;20534;-88
2024/01/10 02:26:57;;;;;;;11.33;7.47;;;;;;;-4.89;85.57;150127.75;4957698;28;20509;-88
2024/01/10 02:29:24;;;;;;;12.47;8.13;;;;;;;-4.88;85.76;150130.31;4963293;28;20505;-89
2024/01/10 02:31:51;;;;;;;12.57;7.77;;;;;;;-4.89;85.54;150127.75;4972669;28;20453;-89
2024/01/10 02:34:18;;;;;;;13.20;8.70;;;;;;;-4.93;85.58;150120.13;4953493;28;20485;-89
2024/01/10 02:36:45;;;;;;;14.40;9.73;;;;;;;-4.93;85.97;150120.13;4937943;29;20442;-89
2024/01/10 02:39:11;;;;;;;9.77;7.37;;;;;;;-4.93;86.81;150118.84;4959780;28;20425;-89
2024/01/10 02:41:38;;;;;;;12.77;7.50;;;;;;;-4.95;87.23;150114.97;4960001;28;20461;-88
2024/01/10 02:44:06;;;;;;;12.23;7.87;;;;;;;-4.97;87.71;150108.59;4943254;28;20410;-89
2024/01/10 02:46:33;;;;;;;13.73;9.40;;;;;;;-5.04;87.42;150092.03;4970101;28;20414;-89
2024/01/10 02:49:00;;;;;;;11.97;8.37;;;;;;;-5.11;86.89;150074.09;4961217;28;20454;-89
2024/01/10 02:51:28;;;;;;;13.07;9.03;;;;;;;-5.11;86.52;150074.09;4953285;29;20443;-89
2024/01/10 02:53:54;;;;;;;10.97;8.53;;;;;;;-5.10;87.22;150076.69;4972591;28;20437;-89
2024/01/10 02:56:21;;;;;;;14.30;8.23;;;;;;;-5.12;87.42;150070.31;4972485;28;20530;-89
2024/01/10 02:58:47;;;;;;;17.17;9.47;;;;;;;-5.11;87.11;150074.09;4972575;28;20473;-88
2024/01/10 03:01:16;;;;;;;11.83;8.37;;;;;;;-5.10;87.33;150076.69;4973119;28;20457;-89
2024/01/10 03:03:43;;;;;;;13.67;8.50;;;;;;;-5.07;88.00;150083.06;4956944;28;20462;-89
2024/01/10 03:06:09;;;;;;;16.00;9.33;;;;;;;-5.04;88.57;150092.03;4958623;28;20857;-89
2024/01/10 03:08:36;;;;;;;13.73;8.20;;;;;;;-5.02;88.59;150097.13;4943370;28;20459;-89
2024/01/10 03:11:03;;;;;;;16.47;9.47;;;;;;;-4.99;89.14;150103.50;4972659;28;20409;-89
2024/01/10 03:13:29;;;;;;;11.83;8.17;;;;;;;-5.00;89.23;150100.94;4972776;28;20545;-89
2024/01/10 03:15:56;;;;;;;12.80;8.83;;;;;;;-4.99;88.64;150103.50;4956055;28;20437;-89
2024/01/10 03:18:24;;;;;;;15.40;8.90;;;;;;;-4.99;88.52;150104.78;4940600;28;20425;-89
2024/01/10 03:20:51;;;;;;;12.27;8.53;;;;;;;-4.97;88.45;150108.59;4937020;29;20429;-89
2024/01/10 03:23:18;;;;;;;13.80;9.03;;;;;;;-4.97;88.57;150109.88;4963871;28;20454;-89
2024/01/10 03:25:45;;;;;;;13.43;9.47;;;;;;;-4.97;88.98;150109.88;4969830;28;20440;-89
2024/01/10 03:28:11;;;;;;;12.60;8.10;;;;;;;-4.95;89.13;150114.97;4970680;28;20418;-89
2024/01/10 03:30:38;;;;;;;14.17;9.40;;;;;;;-4.93;88.91;150120.13;4957206;28;20513;-89
2024/01/10 03:33:05;;;;;;;9.20;7.50;;;;;;;-4.90;88.94;150125.22;4969944;28;20916;-89
2024/01/10 03:35:33;;;;;;;14.07;9.10;;;;;;;-4.87;88.70;150132.91;4968808;28;20414;-89
2024/01/10 03:38:00;;;;;;;12.20;8.80;;;;;;;-4.89;88.22;150127.75;4936739;29;20437;-89
2024/01/10 03:40:27;;;;;;;17.97;9.23;;;;;;;-4.89;88.34;150129.03;4936775;29;20423;-89
2024/01/10 03:42:54;;;;;;;14.50;8.37;;;;;;;-4.90;87.96;150126.53;4962349;28;20449;-89
2024/01/10 03:45:22;;;;;;;13.43;8.80;;;;;;;-4.91;87.85;150123.94;4955571;28;20442;-88
2024/01/10 03:47:51;;;;;;;17.70;10.17;;;;;;;-4.92;88.11;150122.66;4971239;28;20425;-89
2024/01/10 03:50:18;;;;;;;14.33;9.03;;;;;;;-4.90;86.96;150125.22;4952740;29;20410;-90
2024/01/10 03:52:47;;;;;;;11.47;7.60;;;;;;;-4.87;86.71;150132.91;4938943;28;20544;-90
2024/01/10 03:55:15;;;;;;;13.40;9.47;;;;;;;-4.88;87.30;150130.31;4950694;28;20421;-90
2024/01/10 03:57:41;;;;;;;13.93;8.97;;;;;;;-4.90;86.80;150126.53;4971700;28;20819;-87
2024/01/10 04:00:10;;;;;;;12.67;8.20;;;;;;;-4.88;87.34;150131.63;4955554;28;20435;-89
2024/01/10 04:02:37;;;;;;;11.57;8.77;;;;;;;-4.88;87.52;150131.63;4954773;28;20759;-89
2024/01/10 04:05:07;;;;;;;15.53;9.30;;;;;;;-4.87;87.52;150132.91;4945771;29;20550;-90
2024/01/10 04:07:56;;;;;;;16.83;9.10;;;;;;;-4.84;87.24;150140.56;4958268;28;20477;-89
2024/01/10 04:10:23;;;;;;;12.43;8.10;;;;;;;-4.88;87.75;150130.31;4965464;28;20413;-90
2024/01/10 04:12:50;;;;;;;13.87;8.27;;;;;;;-4.91;88.86;150123.94;4973151;28;20494;-90
2024/01/10 04:15:18;;;;;;;14.73;9.07;;;;;;;-4.88;88.25;150130.31;4955045;28;20425;-90
2024/01/10 04:17:45;;;;;;;14.27;11.57;;;;;;;-4.89;87.45;150127.75;4954396;28;20449;-89
2024/01/10 04:20:12;;;;;;;12.60;8.57;;;;;;;-4.86;87.91;150135.44;4954662;28;20509;-90
2024/01/10 04:22:38;;;;;;;14.37;9.07;;;;;;;-4.87;87.90;150132.91;4970918;28;20775;-90
2024/01/10 04:25:08;;;;;;;14.97;8.60;;;;;;;-4.96;87.80;150112.47;4970628;28;20916;-89
2024/01/10 04:27:35;;;;;;;12.60;8.97;;;;;;;-4.99;88.19;150104.78;4938777;28;20424;-90
2024/01/10 04:30:02;;;;;;;15.53;9.27;;;;;;;-5.02;88.46;150095.84;4955263;28;20443;-89
2024/01/10 04:32:29;;;;;;;14.83;8.67;;;;;;;-5.01;88.69;150098.41;4934979;29;20467;-89
2024/01/10 04:34:55;;;;;;;15.43;9.77;;;;;;;-5.02;88.17;150097.13;4919696;28;20939;-89
2024/01/10 04:37:22;;;;;;;12.83;8.67;;;;;;;-5.02;89.35;150097.13;4962113;28;20462;-89
2024/01/10 04:39:49;;;;;;;14.80;10.37;;;;;;;-5.00;89.82;150100.94;4938270;28;20823;-89
2024/01/10 04:42:17;;;;;;;17.63;11.23;;;;;;;-5.00;89.90;150102.22;4964399;28;20478;-89
2024/01/10 04:44:44;;;;;;;14.10;9.30;;;;;;;-4.97;90.53;150109.88;4952205;28;20493;-89
2024/01/10 04:47:11;;;;;;;16.23;10.07;;;;;;;-4.98;90.70;150106.06;4970764;28;21008;-89
2024/01/10 04:49:37;;;;;;;18.23;9.70;;;;;;;-4.97;90.86;150109.88;4938260;28;20417;-89
2024/01/10 04:52:05;;;;;;;11.13;9.10;;;;;;;-4.94;91.06;150117.56;4954633;28;20406;-89
2024/01/10 04:54:31;;;;;;;15.33;9.63;;;;;;;-4.90;91.67;150125.22;4954530;28;20416;-89
2024/01/10 04:56:58;;;;;;;18.70;9.23;;;;;;;-4.92;91.96;150121.38;4935800;28;20513;-88
2024/01/10 04:59:26;;;;;;;15.27;9.57;;;;;;;-4.90;91.36;150125.22;4952124;28;20475;-89
2024/01/10 05:01:53;;;;;;;11.70;9.07;;;;;;;-4.90;91.69;150125.22;4956323;28;20514;-89
2024/01/10 05:04:19;;;;;;;16.57;10.83;;;;;;;-4.95;90.57;150114.97;4954351;28;20446;-90
2024/01/10 05:06:46;;;;;;;15.23;10.10;;;;;;;-4.98;91.00;150107.31;4956491;28;20415;-90
2024/01/10 05:09:13;;;;;;;17.53;9.50;;;;;;;-4.92;91.04;150121.38;4951505;29;20507;-89
2024/01/10 05:11:40;;;;;;;14.47;9.50;;;;;;;-4.92;90.79;150121.38;4935477;29;20403;-89
2024/01/10 05:14:07;;;;;;;13.30;9.00;;;;;;;-4.93;90.74;150118.84;4962657;28;20498;-83
2024/01/10 05:16:35;;;;;;;16.07;9.33;;;;;;;-4.98;90.19;150107.31;4970339;28;20425;-89
2024/01/10 05:21:57;;;;;;;14.13;9.13;;;;;;;-5.02;91.66;150097.13;5103359;27;20972;-90
2024/01/10 05:24:24;;;;;;;15.57;10.77;;;;;;;-5.00;91.40;150102.22;5103417;28;20420;-90
2024/01/10 05:26:51;;;;;;;18.80;11.30;;;;;;;-5.02;90.97;150095.84;5070099;28;20420;-89
2024/01/10 05:29:19;;;;;;;12.80;8.60;;;;;;;-5.03;90.62;150093.31;5071795;28;20467;-89
2024/01/10 05:31:46;;;;;;;13.80;10.00;;;;;;;-5.07;91.05;150083.06;5070686;28;20950;-90
2024/01/10 05:34:13;;;;;;;15.83;10.73;;;;;;;-5.08;91.37;150081.78;5056221;28;20491;-90
2024/01/10 05:36:39;;;;;;;14.03;10.00;;;;;;;-5.09;91.34;150079.25;5064901;28;20456;-90
2024/01/10 05:39:08;;;;;;;18.27;10.13;;;;;;;-5.09;91.42;150079.25;5069180;28;20433;-89
2024/01/10 05:41:34;;;;;;;16.40;10.17;;;;;;;-5.11;91.54;150074.09;5069539;28;20485;-90
2024/01/10 05:44:04;;;;;;;18.50;10.63;;;;;;;-5.12;91.69;150071.59;5086188;28;20423;-90
2024/01/10 05:46:31;;;;;;;17.50;10.20;;;;;;;-5.09;92.31;150079.25;5069161;28;20923;-90
2024/01/10 05:48:58;;;;;;;12.80;9.03;;;;;;;-5.07;92.54;150083.06;5069788;28;20415;-90
2024/01/10 05:51:24;;;;;;;15.60;10.47;;;;;;;-5.06;92.47;150085.63;5069074;28;20416;-89
2024/01/10 05:53:51;;;;;;;16.17;10.93;;;;;;;-5.13;92.80;150069.00;5065498;28;20413;-89
2024/01/10 05:56:19;;;;;;;15.67;10.00;;;;;;;-5.14;93.16;150065.19;5078608;28;20424;-90
2024/01/10 05:58:46;;;;;;;14.70;10.47;;;;;;;-5.13;93.10;150069.00;5065137;28;20413;-90
2024/01/10 06:01:12;;;;;;;15.97;11.93;;;;;;;-5.16;93.58;150061.34;5063640;28;20479;-90
2024/01/10 06:03:39;;;;;;;15.30;9.90;;;;;;;-5.09;93.10;150079.25;5071072;28;20422;-90
2024/01/10 06:06:06;;;;;;;12.70;10.07;;;;;;;-5.09;92.97;150077.97;5068615;28;20502;-90
2024/01/10 06:08:33;;;;;;;16.87;10.47;;;;;;;-5.12;93.01;150070.31;5068260;28;20465;-90
2024/01/10 06:11:00;;;;;;;13.60;10.47;;;;;;;-5.13;92.74;150069.00;5067279;28;20427;-90
2024/01/10 06:13:28;;;;;;;13.83;9.67;;;;;;;-5.11;93.13;150072.88;5068550;28;20465;-91
2024/01/10 06:15:55;;;;;;;14.97;10.40;;;;;;;-5.11;93.75;150074.09;5068595;28;20424;-90
2024/01/10 06:18:21;;;;;;;20.63;10.30;;;;;;;-5.14;94.30;150066.50;5068703;28;20984;-90
2024/01/10 06:20:48;;;;;;;14.10;10.30;;;;;;;-5.15;94.86;150062.63;5065622;28;20504;-90
2024/01/10 06:23:15;;;;;;;17.30;10.83;;;;;;;-5.07;95.46;150083.06;5085338;28;20420;-90
2024/01/10 06:25:42;;;;;;;17.17;11.50;;;;;;;-5.11;95.15;150074.09;5068120;28;20441;-90
2024/01/10 06:28:08;;;;;;;16.97;10.50;;;;;;;-5.16;95.05;150061.34;5084733;28;20418;-91
2024/01/10 06:30:37;;;;;;;17.90;10.63;;;;;;;-5.17;95.62;150058.81;5067682;28;20441;-90
2024/01/10 06:33:06;;;;;;;12.87;9.83;;;;;;;-5.20;95.27;150051.16;5056211;28;20495;-90
2024/01/10 06:35:34;;;;;;;17.83;11.17;;;;;;;-5.24;95.38;150039.66;5052415;28;20433;-90
2024/01/10 06:38:03;;;;;;;21.57;11.47;;;;;;;-5.32;94.97;150020.47;5055549;28;20446;-90
2024/01/10 06:40:31;;;;;;;14.73;10.60;;;;;;;-5.34;95.71;150015.38;5054932;28;20903;-90
2024/01/10 06:42:57;;;;;;;17.80;10.77;;;;;;;-5.36;95.86;150009.00;5055427;28;20788;-90
2024/01/10 06:45:24;;;;;;;18.50;11.00;;;;;;;-5.38;95.89;150005.19;5054503;28;20499;-89
2024/01/10 06:47:52;;;;;;;18.80;10.87;;;;;;;-5.34;96.03;150015.38;5054638;28;20429;-89
2024/01/10 06:50:20;;;;;;;15.93;10.10;;;;;;;-5.32;96.28;150020.47;5054365;28;20979;-90
2024/01/10 06:52:48;;;;;;;23.17;12.23;;;;;;;-5.29;96.18;150026.84;5050052;28;20491;-89
2024/01/10 06:55:15;;;;;;;15.87;9.97;;;;;;;-5.29;96.40;150028.13;5067051;28;20463;-90
2024/01/10 06:57:42;;;;;;;16.23;10.10;;;;;;;-5.29;96.79;150028.13;5047692;28;20448;-90
2024/01/10 07:00:10;;;;;;;17.10;11.90;;;;;;;-5.30;96.66;150025.63;5054437;28;20454;-90
2024/01/10 07:02:37;;;;;;;14.93;10.70;;;;;;;-5.33;96.34;150017.94;5054631;28;20413;-90
2024/01/10 07:05:08;;;;;;;16.37;10.70;;;;;;;-5.32;96.69;150019.22;5054350;28;20465;-90
2024/01/10 07:07:35;;;;;;;19.70;10.50;;;;;;;-5.34;97.24;150015.38;5052158;28;20431;-89
2024/01/10 07:10:04;;;;;;;19.03;10.50;;;;;;;-5.33;97.95;150016.66;5054886;28;20511;-90
2024/01/10 07:12:31;;;;;;;18.77;11.37;;;;;;;-5.38;97.73;150005.19;5054189;28;20417;-90
2024/01/10 07:14:58;;;;;;;15.67;10.23;;;;;;;-5.35;98.51;150012.84;5054433;28;20505;-90
2024/01/10 07:17:25;;;;;;;17.40;10.60;;;;;;;-5.35;99.25;150012.84;5054368;28;20533;-90
2024/01/10 07:19:51;;;;;;;13.07;10.23;;;;;;;-5.35;99.65;150012.84;5053339;28;20465;-90
2024/01/10 07:22:19;;;;;;;14.27;10.20;;;;;;;-5.44;99.29;149989.84;5053902;28;20470;-90
2024/01/10 07:24:47;;;;;;;15.83;12.27;;;;;;;-5.51;99.35;149972.00;5047175;28;20442;-90
2024/01/10 07:27:14;;;;;;;15.80;11.03;;;;;;;-5.47;99.79;149982.19;5052816;28;20434;-90
2024/01/10 07:29:41;;;;;;;20.57;13.07;;;;;;;-5.45;99.78;149987.28;5054397;28;20434;-90
2024/01/10 07:32:11;;;;;;;17.30;12.17;;;;;;;-5.37;99.59;150007.72;5052284;28;20424;-90
2024/01/10 07:34:37;;;;;;;17.60;11.87;;;;;;;-5.36;99.57;150010.28;5054431;28;20450;-90
2024/01/10 07:37:04;;;;;;;26.23;12.73;;;;;;;-5.34;99.52;150015.38;5054540;28;20437;-89
2024/01/10 07:39:32;;;;;;;23.37;13.77;;;;;;;-5.35;99.63;150011.56;5050793;28;20902;-90
2024/01/10 07:42:02;;;;;;;20.47;11.43;;;;;;;-5.34;99.64;150015.38;5038026;28;20441;-90
2024/01/10 07:44:29;;;;;;;17.83;11.60;;;;;;;-5.28;99.40;150030.72;5049662;28;20430;-90
2024/01/10 07:46:55;;;;;;;18.03;11.93;;;;;;;-5.26;99.18;150034.53;5051183;28;20457;-89
2024/01/10 07:49:23;;;;;;;18.43;11.13;;;;;;;-5.27;99.69;150033.25;5053851;28;20461;-89
2024/01/10 07:51:50;;;;;;;17.33;11.23;;;;;;;-5.26;99.79;150035.81;5051776;28;20483;-89
2024/01/10 07:54:17;;;;;;;19.50;12.60;;;;;;;-5.24;100.00;150040.91;5045238;28;20493;-89
2024/01/10 07:56:45;;;;;;;20.03;11.07;;;;;;;-5.17;100.00;150058.81;5051588;28;20846;-89
2024/01/10 07:59:15;;;;;;;15.53;10.60;;;;;;;-5.07;99.06;150084.34;5052521;28;20948;-89
2024/01/10 08:01:45;;;;;;;20.40;12.30;;;;;;;-5.07;99.14;150084.34;5053229;28;20563;-89
2024/01/10 08:04:11;;;;;;;17.80;11.70;;;;;;;-5.09;99.57;150079.25;5053687;28;20834;-89
2024/01/10 08:06:38;;;;;;;18.50;13.00;;;;;;;-5.11;99.71;150074.09;5053327;28;20450;-89
2024/01/10 08:09:05;;;;;;;15.07;11.43;;;;;;;-5.12;99.71;150071.59;5044920;28;20432;-89
2024/01/10 08:11:31;;;;;;;20.80;12.20;;;;;;;-5.07;99.63;150083.06;5068432;28;20488;-89
2024/01/10 08:14:00;;;;;;;14.83;12.00;;;;;;;-5.03;99.48;150094.53;5048711;28;20413;-89
2024/01/10 08:16:27;;;;;;;15.83;12.43;;;;;;;-5.01;99.71;150099.69;5042944;28;20436;-89
2024/01/10 08:18:54;;;;;;;18.00;11.07;;;;;;;-4.93;100.00;150120.13;5053933;28;20407;-89
2024/01/10 08:21:21;;;;;;;19.77;12.23;;;;;;;-4.86;99.90;150135.44;5052329;28;20452;-89
2024/01/10 08:23:47;;;;;;;18.63;12.80;;;;;;;-4.81;99.50;150148.19;5052056;28;20494;-89
2024/01/10 08:26:14;;;;;;;18.60;12.00;;;;;;;-4.70;99.53;150177.59;5049761;28;20479;-89
2024/01/10 08:28:42;;;;;;;14.47;11.43;;;;;;;-4.62;98.90;150198.03;5047418;28;20429;-89
2024/01/10 08:31:10;;;;;;;16.60;12.20;;;;;;;-4.61;97.29;150200.63;5052026;28;20482;-89
2024/01/10 08:33:39;;;;;;;20.53;13.17;;;;;;;-4.49;97.66;150229.97;5049076;28;20444;-89
2024/01/10 08:36:07;;;;;;;21.10;12.20;;;;;;;-4.39;97.54;150256.81;5045565;28;20458;-89
2024/01/10 08:38:35;;;;;;;16.20;10.90;;;;;;;-4.31;96.54;150275.97;5061577;28;20928;-89
2024/01/10 08:41:03;;;;;;;19.30;12.50;;;;;;;-4.20;96.44;150302.81;5049636;28;20477;-89
2024/01/10 08:43:30;;;;;;;19.37;12.20;;;;;;;-4.09;96.11;150332.25;5049527;28;20458;-90
2024/01/10 08:45:57;;;;;;;23.93;12.33;;;;;;;-4.03;94.97;150347.59;5065910;28;20442;-90
2024/01/10 08:48:26;;;;;;;16.27;11.47;;;;;;;-4.08;92.85;150334.81;5052150;28;20446;-90
2024/01/10 08:50:54;;;;;;;16.17;9.90;;;;;;;-4.11;93.33;150327.13;5066277;28;20538;-90
2024/01/10 08:53:21;;;;;;;19.50;13.17;;;;;;;-4.07;93.38;150337.34;5062394;28;20910;-90
2024/01/10 08:55:48;;;;;;;23.93;14.00;;;;;;;-4.00;93.80;150355.28;5051072;28;20465;-90
2024/01/10 08:58:17;;;;;;;21.07;13.70;;;;;;;-3.98;93.88;150360.38;5052501;28;20437;-90
2024/01/10 09:00:44;;;;;;;11.53;8.77;;;;;;;-3.97;93.70;150362.91;5052465;28;20445;-90
2024/01/10 09:03:11;;;;;;;19.60;11.77;;;;;;;-3.96;94.00;150365.47;5053291;28;20421;-90
2024/01/10 09:05:39;;;;;;;20.33;13.70;;;;;;;-3.98;93.55;150359.09;5053099;28;20461;-91
2024/01/10 09:08:06;;;;;;;21.33;13.10;;;;;;;-4.01;93.93;150351.41;5071060;28;20477;-91
2024/01/10 09:10:33;;;;;;;18.90;13.20;;;;;;;-4.01;93.85;150352.69;5053526;28;20939;-92
2024/01/10 09:13:00;;;;;;;22.43;13.30;;;;;;;-4.02;93.53;150348.84;5047873;28;20832;-91
2024/01/10 09:15:27;;;;;;;21.17;12.90;;;;;;;-3.97;94.42;150362.91;5066887;28;20450;-91
2024/01/10 09:17:53;;;;;;;19.30;13.20;;;;;;;-3.94;95.20;150369.28;5052857;28;20450;-91
2024/01/10 09:20:20;;;;;;;24.37;13.87;;;;;;;-3.87;93.29;150388.50;5050502;28;20464;-90
2024/01/10 09:22:49;;;;;;;18.37;12.30;;;;;;;-3.86;93.48;150391.03;5049828;28;20470;-89
2024/01/10 09:25:16;;;;;;;19.50;13.57;;;;;;;-3.80;94.38;150405.09;5048570;28;20441;-89
2024/01/10 09:27:44;;;;;;;19.70;14.10;;;;;;;-3.76;94.78;150416.59;5051698;28;20524;-89
2024/01/10 09:30:11;;;;;;;25.43;12.53;;;;;;;-3.70;94.67;150431.97;5051839;28;20501;-89
2024/01/10 09:32:38;;;;;;;18.83;12.80;;;;;;;-3.66;94.36;150440.94;5052143;28;20485;-89
2024/01/10 09:35:05;;;;;;;25.80;14.00;;;;;;;-3.55;94.50;150467.78;5052164;28;20470;-90
2024/01/10 09:37:33;;;;;;;17.60;13.07;;;;;;;-3.51;95.33;150478.00;5047959;28;20463;-90
2024/01/10 09:40:01;;;;;;;19.20;13.53;;;;;;;-3.48;94.51;150485.69;5047556;28;20968;-90
2024/01/10 09:42:31;;;;;;;23.00;13.90;;;;;;;-3.48;94.71;150485.69;5049661;28;20503;-90
2024/01/10 09:44:58;;;;;;;23.43;14.67;;;;;;;-3.47;94.66;150488.25;5052123;28;20443;-90
2024/01/10 09:47:25;;;;;;;22.80;13.17;;;;;;;-3.42;94.14;150501.03;5052023;28;20437;-91
2024/01/10 09:49:52;;;;;;;23.83;14.00;;;;;;;-3.38;94.06;150511.25;5049304;28;20952;-90
2024/01/10 09:52:29;;;;;;;23.10;14.03;;;;;;;-3.31;93.38;150530.44;5052723;28;20442;-91
2024/01/10 09:54:57;;;;;;;21.13;12.53;;;;;;;-3.26;93.84;150543.28;5052258;28;20932;-90
2024/01/10 09:57:26;;;;;;;22.73;13.80;;;;;;;-3.22;94.47;150553.50;5052334;28;20478;-90
2024/01/10 09:59:54;;;;;;;23.70;14.77;;;;;;;-3.20;93.91;150557.31;5039711;28;20801;-90
2024/01/10 10:02:22;;;;;;;21.97;13.00;;;;;;;-3.17;94.70;150565.00;5051861;28;20466;-91
2024/01/10 10:04:54;;;;;;;22.43;14.47;;;;;;;-3.14;95.41;150572.66;5039971;28;20470;-90
2024/01/10 10:07:22;;;;;;;23.20;15.00;;;;;;;-3.14;92.76;150573.97;5042006;28;20414;-89
2024/01/10 10:09:53;;;;;;;28.90;16.73;;;;;;;-3.14;93.25;150572.66;5073101;28;20457;-90
2024/01/10 10:12:20;;;;;;;23.20;14.40;;;;;;;-3.11;94.02;150580.34;5068678;28;20458;-89
2024/01/10 10:14:48;;;;;;;23.53;15.07;;;;;;;-3.08;94.20;150589.31;5040094;28;20474;-89
2024/01/10 10:17:16;;;;;;;21.63;14.90;;;;;;;-3.07;93.49;150591.84;5058023;28;20479;-89
2024/01/10 10:19:44;;;;;;;21.47;13.70;;;;;;;-2.99;93.35;150611.03;5042189;28;20509;-89
2024/01/10 10:22:13;;;;;;;20.50;13.80;;;;;;;-2.97;92.97;150614.91;5054969;28;20491;-90
2024/01/10 10:24:44;;;;;;;25.67;15.00;;;;;;;-2.98;92.21;150612.34;5062518;28;20467;-89
2024/01/10 10:27:14;;;;;;;25.97;15.70;;;;;;;-3.00;94.26;150607.22;5050259;28;20461;-90
2024/01/10 10:29:41;;;;;;;21.17;12.93;;;;;;;-2.96;92.93;150617.44;5050253;28;20468;-90
2024/01/10 10:32:12;;;;;;;23.50;15.37;;;;;;;-2.96;92.19;150618.72;5050202;28;20448;-90
2024/01/10 10:34:42;;;;;;;19.87;12.70;;;;;;;-2.93;92.61;150625.13;5049775;28;21002;-90
2024/01/10 10:37:08;;;;;;;28.73;15.90;;;;;;;-2.99;92.71;150609.81;5067745;28;20466;-90
2024/01/10 10:39:42;;;;;;;22.90;14.20;;;;;;;-2.90;93.06;150632.81;5050254;28;20454;-90
2024/01/10 10:42:08;;;;;;;25.57;15.50;;;;;;;-2.86;93.99;150644.31;5048044;28;20524;-90
2024/01/10 10:44:37;;;;;;;26.20;16.33;;;;;;;-2.90;93.54;150634.09;5072921;28;20461;-90
2024/01/10 10:47:07;;;;;;;23.43;15.93;;;;;;;-2.92;94.61;150629.00;5047864;28;20455;-90
2024/01/10 10:49:36;;;;;;;26.77;16.00;;;;;;;-2.96;93.47;150618.72;5067950;28;20449;-90
2024/01/10 10:52:02;;;;;;;22.00;15.43;;;;;;;-2.96;95.18;150618.72;5060202;28;20446;-90
2024/01/10 10:54:31;;;;;;;27.20;15.60;;;;;;;-2.92;94.00;150627.69;5040569;28;20450;-89
2024/01/10 10:56:59;;;;;;;22.57;16.23;;;;;;;-2.87;94.38;150641.78;5055036;28;20447;-89
2024/01/10 10:59:27;;;;;;;24.17;17.23;;;;;;;-2.85;93.89;150646.91;5046706;28;20450;-90
2024/01/10 11:01:55;;;;;;;23.17;14.23;;;;;;;-2.86;94.20;150644.31;5041194;28;20571;-90
2024/01/10 11:04:22;;;;;;;23.77;14.97;;;;;;;-2.88;94.73;150637.91;5047121;28;20450;-89
2024/01/10 11:07:00;;;;;;;22.77;15.23;;;;;;;-2.83;94.82;150652.00;5056752;28;20449;-90
2024/01/10 11:09:29;;;;;;;20.37;12.60;;;;;;;-2.77;94.05;150666.09;5054756;28;20453;-90
2024/01/10 11:12:17;;;;;;;23.70;14.43;;;;;;;-2.79;94.45;150662.25;5061116;28;20458;-92
2024/01/10 11:14:57;;;;;;;23.90;15.70;;;;;;;-2.86;94.91;150644.31;5064301;28;20477;-91
2024/01/10 11:20:27;;;;;;;22.83;14.13;;;;;;;-2.75;94.52;150671.19;5029239;28;20451;-90
2024/01/10 11:23:29;;;;;;;21.37;13.77;;;;;;;-2.83;94.66;150650.75;5002630;28;20480;-90